Time;durP1;ratioP1;P1;durP2;ratioP2;P2;SDS_P1;SDS_P2;PMS_P1;PMS_P2;Temp;Humidity;BMP_temperature;BMP_pressure;BME280_temperature;BME280_humidity;BME280_pressure;Samples;Min_cycle;Max_cycle;Signal;HPM_P1;HPM_P2
2023/01/19 00:00:26;;;;;;;;;0.50;0.00;;;;;3.84;82.50;99854.56;5026243;28;11445;-69
2023/01/19 00:02:53;;;;;;;;;0.00;0.00;;;;;3.83;82.76;99844.13;5029612;28;12155;-69
2023/01/19 00:05:20;;;;;;;;;0.00;0.00;;;;;3.86;82.48;99836.63;5026862;28;11471;-68
2023/01/19 00:07:46;;;;;;;;;0.00;0.00;;;;;3.86;82.32;99844.59;5020528;28;11461;-68
2023/01/19 00:10:13;;;;;;;;;0.00;0.00;;;;;3.85;82.17;99848.28;5016376;28;11420;-69
2023/01/19 00:12:39;;;;;;;;;0.00;0.00;;;;;3.84;82.36;99846.59;5028168;28;11428;-70
2023/01/19 00:15:07;;;;;;;;;0.00;0.00;;;;;3.83;82.39;99852.09;5028092;28;11512;-67
2023/01/19 00:17:33;;;;;;;;;0.00;0.00;;;;;3.79;82.71;99851.63;5031337;28;11423;-66
2023/01/19 00:20:00;;;;;;;;;0.00;0.00;;;;;3.75;82.46;99854.81;5047016;28;11442;-66
2023/01/19 00:22:26;;;;;;;;;0.00;0.00;;;;;3.76;83.22;99854.63;5030381;28;11448;-67
2023/01/19 00:24:52;;;;;;;;;0.00;0.00;;;;;3.75;83.20;99854.81;5022653;28;11520;-67
2023/01/19 00:27:19;;;;;;;;;0.00;0.00;;;;;3.70;82.90;99866.81;5026363;28;11478;-67
2023/01/19 00:29:45;;;;;;;;;0.00;0.00;;;;;3.76;83.01;99867.09;5028924;28;11474;-66
2023/01/19 00:32:12;;;;;;;;;0.00;0.00;;;;;3.75;83.02;99876.09;5020893;28;11449;-66
2023/01/19 00:34:41;;;;;;;;;0.00;0.00;;;;;3.78;82.85;99862.44;5014060;28;11435;-67
2023/01/19 00:37:08;;;;;;;;;0.00;0.00;;;;;3.76;82.80;99861.78;5021673;28;11489;-67
2023/01/19 00:39:35;;;;;;;;;0.00;0.00;;;;;3.79;82.87;99861.44;5030979;28;11439;-68
2023/01/19 00:44:47;;;;;;;;;0.00;0.00;;;;;3.84;82.85;99870.53;5020506;28;11531;-67
2023/01/19 00:47:14;;;;;;;;;0.00;0.00;;;;;3.81;82.98;99873.59;5031376;28;11547;-66
2023/01/19 00:49:40;;;;;;;;;0.00;0.00;;;;;3.81;83.04;99864.75;5031413;28;11558;-66
2023/01/19 00:52:06;;;;;;;;;0.00;0.00;;;;;3.79;82.88;99864.94;5028234;28;11423;-66
2023/01/19 00:54:33;;;;;;;;;0.00;0.00;;;;;3.71;83.16;99860.47;5022519;28;11457;-66
2023/01/19 00:57:00;;;;;;;;;1.00;0.00;;;;;3.78;83.66;99875.75;5031382;28;11408;-67
2023/01/19 00:59:26;;;;;;;;;0.75;0.00;;;;;3.83;83.61;99873.41;5029538;28;11419;-66
2023/01/19 01:01:53;;;;;;;;;0.00;0.00;;;;;3.88;83.49;99874.53;5022317;28;11423;-66
2023/01/19 01:04:20;;;;;;;;;0.00;0.00;;;;;3.86;83.56;99873.06;5023228;28;11512;-66
2023/01/19 01:06:46;;;;;;;;;0.00;0.00;;;;;3.92;83.91;99872.34;5025606;28;11508;-67
2023/01/19 01:09:12;;;;;;;;;0.00;0.00;;;;;3.96;83.45;99873.66;5022437;28;11458;-66
2023/01/19 01:11:41;;;;;;;;;1.00;0.00;;;;;3.96;83.50;99865.66;5030486;28;11579;-67
2023/01/19 01:14:09;;;;;;;;;0.00;0.00;;;;;4.01;83.64;99867.78;5028157;28;11450;-66
2023/01/19 01:16:35;;;;;;;;;0.00;0.00;;;;;3.98;83.32;99866.31;5021924;28;11444;-65
2023/01/19 01:19:02;;;;;;;;;0.00;0.00;;;;;4.02;83.87;99872.13;5025825;28;11187;-67
2023/01/19 01:21:28;;;;;;;;;0.00;0.00;;;;;4.02;83.91;99880.13;5043966;28;11535;-66
2023/01/19 01:23:55;;;;;;;;;0.00;0.00;;;;;4.00;84.09;99895.44;5022477;28;11444;-66
2023/01/19 01:26:21;;;;;;;;;0.00;0.00;;;;;3.95;84.00;99887.97;5027932;28;11571;-67
2023/01/19 01:28:47;;;;;;;;;0.00;0.00;;;;;3.91;84.33;99895.47;5029558;28;11424;-67
2023/01/19 01:31:14;;;;;;;;;1.00;0.00;;;;;3.87;85.00;99902.16;5029617;28;11465;-67
2023/01/19 01:33:40;;;;;;;;;0.75;0.00;;;;;3.85;84.40;99892.66;5032541;28;11503;-67
2023/01/19 01:36:08;;;;;;;;;0.00;0.00;;;;;3.89;84.91;99910.81;5021383;28;11470;-65
2023/01/19 01:38:35;;;;;;;;;0.00;0.00;;;;;3.87;84.32;99915.47;5020982;28;12150;-66
2023/01/19 01:41:01;;;;;;;;;0.00;0.00;;;;;3.85;84.77;99917.47;5032109;28;11477;-66
2023/01/19 01:43:57;;;;;;;;;1.00;0.00;;;;;3.88;85.03;99924.28;5045772;28;11455;-66
2023/01/19 01:46:25;;;;;;;;;0.00;0.00;;;;;3.87;84.51;99926.13;5018694;28;11420;-66
2023/01/19 01:49:06;;;;;;;;;0.00;0.00;;;;;3.86;84.78;99921.81;5022917;28;11496;-67
2023/01/19 01:51:47;;;;;;;;;0.00;0.00;;;;;3.87;83.84;99922.63;5020994;28;11439;-66
2023/01/19 01:54:28;;;;;;;;;0.50;0.00;;;;;3.82;84.07;99931.13;5027622;28;11433;-68
2023/01/19 01:56:59;;;;;;;;;0.00;0.00;;;;;3.86;84.60;99935.13;5023054;28;11422;-67
2023/01/19 01:59:33;;;;;;;;;0.00;0.00;;;;;3.89;84.37;99936.56;5046386;28;11461;-68
2023/01/19 02:04:57;;;;;;;;;0.00;0.00;;;;;3.80;83.92;99950.94;5032409;28;11579;-67
2023/01/19 02:13:21;;;;;;;;;0.00;0.00;;;;;3.69;83.97;99973.44;5048526;28;11542;-69
2023/01/19 02:15:54;;;;;;;;;0.00;0.00;;;;;3.72;84.05;99978.41;5027869;28;11463;-67
2023/01/19 02:18:25;;;;;;;;;1.00;0.00;;;;;3.75;84.39;99983.41;5026204;28;11457;-66
2023/01/19 02:21:28;;;;;;;;;0.00;0.00;;;;;3.64;84.34;99989.91;5046716;28;11627;-65
2023/01/19 02:23:57;;;;;;;;;0.00;0.00;;;;;3.57;83.61;99985.44;5027629;28;11452;-65
2023/01/19 02:26:28;;;;;;;;;0.00;0.00;;;;;3.56;83.58;99989.91;5023332;28;11436;-65
2023/01/19 02:29:06;;;;;;;;;0.00;0.00;;;;;3.46;83.87;99983.97;5027884;28;11540;-66
2023/01/19 02:31:34;;;;;;;;;0.00;0.00;;;;;3.41;83.56;99978.34;5030462;28;11590;-66
2023/01/19 02:34:02;;;;;;;;;0.50;0.00;;;;;3.41;84.30;99979.16;5029213;28;12162;-66
2023/01/19 02:36:41;;;;;;;;;0.00;0.00;;;;;3.47;83.75;99973.16;5048342;28;11434;-67
2023/01/19 02:39:10;;;;;;;;;1.00;0.00;;;;;3.57;84.21;99966.81;5033488;28;11499;-67
2023/01/19 02:41:50;;;;;;;;;0.00;0.00;;;;;3.64;83.50;99955.31;5028040;28;11599;-67
2023/01/19 02:44:19;;;;;;;;;0.00;0.00;;;;;3.63;82.84;99966.13;5029674;28;11439;-67
2023/01/19 02:46:46;;;;;;;;;0.00;0.00;;;;;3.66;82.71;99952.50;5015471;28;11439;-67
2023/01/19 02:49:13;;;;;;;;;0.00;0.00;;;;;3.69;82.85;99963.63;5017014;28;11448;-67
2023/01/19 02:51:42;;;;;;;;;1.50;0.00;;;;;3.77;82.48;99960.09;5032727;28;12307;-66
2023/01/19 02:54:25;;;;;;;;;1.00;0.00;;;;;3.86;82.11;99958.25;5032312;28;11491;-67
2023/01/19 02:57:00;;;;;;;;;0.00;0.00;;;;;3.95;81.84;99965.19;5025767;28;11570;-66
2023/01/19 02:59:32;;;;;;;;;0.00;0.00;;;;;4.01;81.39;99969.84;5021456;28;12775;-66
2023/01/19 03:02:20;;;;;;;;;0.00;0.00;;;;;4.04;81.21;99981.94;5022950;28;11514;-67
2023/01/19 03:05:07;;;;;;;;;0.00;0.00;;;;;4.04;81.56;99988.09;5028067;28;11444;-65
2023/01/19 03:07:33;;;;;;;;;0.00;0.00;;;;;4.06;81.55;99991.44;5031149;28;11455;-66
2023/01/19 03:10:16;;;;;;;;;1.25;1.00;;;;;4.09;81.46;99995.56;5032672;28;11553;-66
2023/01/19 03:12:50;;;;;;;;;0.25;0.25;;;;;4.04;81.22;99988.09;5031301;28;11463;-66
2023/01/19 03:15:35;;;;;;;;;0.00;0.00;;;;;4.07;81.48;99998.41;5031217;28;11432;-66
2023/01/19 03:18:07;;;;;;;;;0.00;0.00;;;;;4.07;81.46;99998.41;5026621;28;11480;-66
2023/01/19 03:20:35;;;;;;;;;1.25;0.00;;;;;4.04;81.53;100004.09;5021072;28;11496;-68
2023/01/19 03:23:07;;;;;;;;;0.00;0.00;;;;;4.02;81.49;100006.09;5019877;28;12651;-67
2023/01/19 03:25:38;;;;;;;;;0.00;0.00;;;;;4.01;81.49;100011.59;5017216;28;11462;-67
2023/01/19 03:28:04;;;;;;;;;0.50;0.00;;;;;3.98;81.46;100012.78;5026068;28;11454;-66
2023/01/19 03:30:37;;;;;;;;;0.00;0.00;;;;;4.02;81.15;100023.91;5025523;28;11531;-67
2023/01/19 03:33:10;;;;;;;;;0.00;0.00;;;;;3.98;81.92;100020.75;5031890;28;11438;-66
2023/01/19 03:35:43;;;;;;;;;0.00;0.00;;;;;3.99;81.97;100032.25;5014487;28;12188;-67
2023/01/19 03:38:15;;;;;;;;;0.00;0.00;;;;;3.93;81.85;100031.94;5012579;28;11104;-67
2023/01/19 03:40:44;;;;;;;;;0.00;0.00;;;;;3.90;81.74;100028.78;5028897;28;11316;-65
2023/01/19 03:43:11;;;;;;;;;0.00;0.00;;;;;3.89;81.86;100038.59;5024191;28;11456;-65
2023/01/19 03:45:38;;;;;;;;;0.50;0.25;;;;;3.89;82.28;100032.41;5020674;28;11504;-66
2023/01/19 03:48:06;;;;;;;;;0.00;0.00;;;;;3.90;82.33;100034.94;5021597;28;11441;-67
2023/01/19 03:50:32;;;;;;;;;0.00;0.00;;;;;3.94;82.47;100035.44;5031814;28;11458;-68
2023/01/19 03:53:00;;;;;;;;;0.00;0.00;;;;;3.92;82.34;100038.25;5030304;28;11435;-67
2023/01/19 03:55:27;;;;;;;;;0.00;0.00;;;;;3.92;82.01;100038.25;5026880;28;11431;-66
2023/01/19 03:57:54;;;;;;;;;1.00;0.75;;;;;3.95;82.50;100047.72;5024528;28;11529;-66
2023/01/19 04:00:20;;;;;;;;;0.75;0.00;;;;;3.95;81.81;100045.88;5026345;28;11457;-67
2023/01/19 04:02:47;;;;;;;;;0.00;0.00;;;;;3.96;82.59;100046.72;5018513;28;11501;-66
2023/01/19 04:05:14;;;;;;;;;0.25;0.00;;;;;3.97;82.48;100041.25;5022602;28;11456;-65
2023/01/19 04:07:40;;;;;;;;;3.00;1.00;;;;;3.97;81.89;100046.56;5029649;28;11510;-65
2023/01/19 04:10:11;;;;;;;;;0.00;0.00;;;;;3.99;82.28;100050.88;5021187;28;11511;-67
2023/01/19 04:12:38;;;;;;;;;0.00;0.00;;;;;3.99;81.91;100045.56;5031619;28;11424;-66
2023/01/19 04:15:05;;;;;;;;;0.00;0.00;;;;;4.03;82.03;100053.03;5028420;28;11426;-66
2023/01/19 04:17:32;;;;;;;;;0.00;0.00;;;;;4.03;82.11;100055.69;5018401;28;11459;-66
2023/01/19 04:19:59;;;;;;;;;0.00;0.00;;;;;4.06;81.98;100049.19;5020743;28;11541;-65
2023/01/19 04:22:25;;;;;;;;;0.00;0.00;;;;;4.10;82.11;100045.19;5015001;28;12143;-65
2023/01/19 04:24:52;;;;;;;;;0.00;0.00;;;;;4.09;81.48;100049.69;5019229;28;11561;-66
2023/01/19 04:27:18;;;;;;;;;1.00;0.00;;;;;4.08;81.81;100053.34;5014461;28;11461;-65
2023/01/19 04:29:45;;;;;;;;;0.50;0.00;;;;;4.09;81.89;100054.16;5027377;28;11453;-65
2023/01/19 04:32:14;;;;;;;;;0.00;0.00;;;;;4.11;81.55;100054.84;5021651;28;11551;-67
2023/01/19 04:34:41;;;;;;;;;1.00;0.00;;;;;4.10;81.47;100067.34;5027688;28;11424;-65
2023/01/19 04:37:08;;;;;;;;;1.00;1.00;;;;;4.09;81.21;100073.66;5018183;28;11558;-67
2023/01/19 04:39:34;;;;;;;;;0.00;0.00;;;;;4.10;81.33;100083.31;5027477;28;11466;-66
2023/01/19 04:42:01;;;;;;;;;0.00;0.00;;;;;4.13;81.50;100082.13;5022834;28;11148;-66
2023/01/19 04:44:28;;;;;;;;;0.75;0.50;;;;;4.14;80.71;100086.47;5021138;28;11470;-67
2023/01/19 04:46:54;;;;;;;;;0.50;0.50;;;;;4.08;80.83;100079.97;5027122;28;11450;-67
2023/01/19 04:49:21;;;;;;;;;1.00;0.25;;;;;4.13;80.73;100082.97;5024139;28;11516;-66
2023/01/19 04:51:47;;;;;;;;;0.00;0.00;;;;;4.16;80.60;100084.44;5030744;28;11442;-66
2023/01/19 04:54:13;;;;;;;;;1.25;0.50;;;;;4.16;80.51;100087.09;5025266;28;11652;-66
2023/01/19 04:56:40;;;;;;;;;0.00;0.00;;;;;4.21;80.30;100096.28;5023514;28;11440;-66
2023/01/19 04:59:07;;;;;;;;;0.75;0.00;;;;;4.25;80.66;100094.06;5022207;28;11494;-66
2023/01/19 05:01:33;;;;;;;;;1.00;0.00;;;;;4.26;80.00;100090.41;5020942;28;11507;-66
2023/01/19 05:04:00;;;;;;;;;0.75;0.75;;;;;4.28;80.03;100098.22;5018384;28;11551;-67
2023/01/19 05:06:27;;;;;;;;;0.75;0.75;;;;;4.25;79.19;100093.25;5039672;28;12174;-66
2023/01/19 05:08:53;;;;;;;;;1.00;0.50;;;;;4.28;79.26;100101.72;5029133;28;11461;-65
2023/01/19 05:11:20;;;;;;;;;0.50;0.00;;;;;4.29;79.32;100099.88;5031197;28;11473;-68
2023/01/19 05:13:46;;;;;;;;;0.00;0.00;;;;;4.33;79.32;100095.88;5024559;28;12235;-68
2023/01/19 05:16:15;;;;;;;;;0.00;0.00;;;;;4.35;78.64;100100.03;5015216;28;11479;-67
2023/01/19 05:18:42;;;;;;;;;1.00;1.00;;;;;4.39;78.90;100108.53;5021810;28;11425;-68
2023/01/19 05:21:08;;;;;;;;;1.00;1.00;;;;;4.38;78.45;100113.03;5030366;28;11461;-67
2023/01/19 05:23:35;;;;;;;;;1.00;1.00;;;;;4.41;78.44;100103.84;5027970;28;11457;-68
2023/01/19 05:26:02;;;;;;;;;1.00;1.00;;;;;4.43;78.44;100096.50;5022705;28;11188;-67
2023/01/19 05:28:30;;;;;;;;;4.00;1.25;;;;;4.44;77.97;100104.31;5022732;28;11444;-67
2023/01/19 05:30:56;;;;;;;;;1.00;0.00;;;;;4.46;77.71;100106.84;5027925;28;11417;-68
2023/01/19 05:33:23;;;;;;;;;1.50;1.50;;;;;4.45;77.46;100111.31;5029819;28;11452;-68
2023/01/19 05:35:52;;;;;;;;;1.00;1.00;;;;;4.46;77.68;100115.66;5029860;28;11531;-69
2023/01/19 05:38:19;;;;;;;;;2.00;0.00;;;;;4.49;77.45;100118.97;5041895;28;11522;-69
2023/01/19 05:40:59;;;;;;;;;1.00;0.25;;;;;4.48;77.27;100120.81;5016850;28;11544;-67
2023/01/19 05:43:25;;;;;;;;;0.50;0.00;;;;;4.49;77.48;100124.28;5022511;28;11491;-68
2023/01/19 05:45:52;;;;;;;;;0.00;0.00;;;;;4.50;77.27;100129.47;5023377;28;11110;-68
2023/01/19 05:48:18;;;;;;;;;0.25;0.25;;;;;4.50;76.87;100133.94;5029265;28;11444;-69
2023/01/19 05:50:48;;;;;;;;;1.00;0.25;;;;;4.49;76.94;100134.97;5028160;28;11518;-69
2023/01/19 05:53:15;;;;;;;;;0.00;0.00;;;;;4.50;77.21;100134.81;5025144;28;11477;-67
2023/01/19 05:55:42;;;;;;;;;1.00;1.00;;;;;4.51;77.19;100132.97;5027249;28;11600;-68
2023/01/19 05:58:09;;;;;;;;;0.25;0.25;;;;;4.49;77.27;100140.28;5021877;28;11473;-68
2023/01/19 06:00:35;;;;;;;;;1.25;1.25;;;;;4.43;76.70;100144.47;5019965;28;11423;-68
2023/01/19 06:03:02;;;;;;;;;4.00;0.00;;;;;4.38;77.28;100142.34;5045174;28;11490;-70
2023/01/19 06:05:29;;;;;;;;;3.00;1.00;;;;;4.38;76.54;100147.66;5014795;28;11454;-69
2023/01/19 06:07:56;;;;;;;;;0.75;0.00;;;;;4.39;77.27;100145.81;5010152;28;11643;-69
2023/01/19 06:10:22;;;;;;;;;1.00;1.00;;;;;4.34;77.07;100146.34;5010214;28;11457;-68
2023/01/19 06:12:50;;;;;;;;;4.00;1.50;;;;;4.38;77.02;100146.84;5022703;28;11445;-68
2023/01/19 06:15:17;;;;;;;;;2.00;2.00;;;;;4.33;76.45;100149.97;5020555;28;11462;-69
2023/01/19 06:17:43;;;;;;;;;0.25;0.25;;;;;4.39;76.32;100153.81;5025382;28;11573;-69
2023/01/19 06:20:12;;;;;;;;;1.00;1.00;;;;;4.43;75.89;100160.47;5028657;28;12204;-68
2023/01/19 06:22:39;;;;;;;;;0.00;0.00;;;;;4.44;75.95;100154.13;5024250;28;11534;-69
2023/01/19 06:25:05;;;;;;;;;1.50;0.75;;;;;4.44;75.46;100164.78;5026022;28;11451;-69
2023/01/19 06:27:32;;;;;;;;;0.50;0.00;;;;;4.45;75.25;100167.28;5028132;28;11427;-68
2023/01/19 06:29:58;;;;;;;;;1.50;0.50;;;;;4.45;74.98;100169.94;5023398;28;11421;-69
2023/01/19 06:32:25;;;;;;;;;3.00;1.25;;;;;4.42;75.07;100169.47;5031749;28;11563;-68
2023/01/19 06:34:51;;;;;;;;;0.00;0.00;;;;;4.38;74.64;100182.31;5031106;28;11482;-69
2023/01/19 06:37:19;;;;;;;;;1.00;0.00;;;;;4.37;74.74;100182.47;5019543;28;12229;-69
2023/01/19 06:39:45;;;;;;;;;0.00;0.00;;;;;4.36;75.11;100192.28;5019809;28;11568;-69
2023/01/19 06:42:12;;;;;;;;;2.50;0.00;;;;;4.36;74.35;100197.63;5028464;28;11462;-70
2023/01/19 06:44:46;;;;;;;;;0.00;0.00;;;;;4.39;74.82;100199.13;5031814;28;11462;-69
2023/01/19 06:47:14;;;;;;;;;1.00;0.00;;;;;4.40;74.84;100196.28;5027072;28;11471;-68
2023/01/19 06:49:42;;;;;;;;;1.00;0.00;;;;;4.39;75.22;100202.59;5025037;28;11105;-68
2023/01/19 06:52:14;;;;;;;;;1.25;1.00;;;;;4.42;75.05;100206.78;5025761;28;11212;-70
2023/01/19 06:54:42;;;;;;;;;0.00;0.00;;;;;4.42;75.10;100210.28;5022812;28;11468;-69
2023/01/19 06:57:12;;;;;;;;;0.00;0.00;;;;;4.41;74.87;100213.91;5026068;28;11499;-69
2023/01/19 06:59:38;;;;;;;;;0.25;0.25;;;;;4.41;75.20;100213.09;5031320;28;11474;-69
2023/01/19 07:02:05;;;;;;;;;0.75;0.75;;;;;4.45;75.36;100219.75;5028144;28;11219;-69
2023/01/19 07:04:51;;;;;;;;;1.00;0.00;;;;;4.49;75.01;100229.06;5024122;28;11504;-69
2023/01/19 07:07:18;;;;;;;;;0.75;0.75;;;;;4.46;74.93;100232.91;5030009;28;11467;-68
2023/01/19 07:09:44;;;;;;;;;4.75;0.50;;;;;4.43;75.12;100243.06;5027551;28;11569;-69
2023/01/19 07:12:10;;;;;;;;;2.50;1.00;;;;;4.38;74.83;100245.44;5032738;28;11450;-69
2023/01/19 07:14:37;;;;;;;;;1.00;1.00;;;;;4.32;75.32;100235.44;5031727;28;11450;-69
2023/01/19 07:17:03;;;;;;;;;3.50;0.50;;;;;4.31;76.07;100255.09;5016653;28;11481;-69
2023/01/19 07:19:30;;;;;;;;;0.00;0.00;;;;;4.29;75.56;100247.25;5012629;28;11566;-69
2023/01/19 07:21:56;;;;;;;;;1.00;0.00;;;;;4.28;75.74;100258.91;5012489;28;11537;-68
2023/01/19 07:24:23;;;;;;;;;2.25;0.00;;;;;4.31;76.10;100263.91;5020228;28;11528;-68
2023/01/19 07:26:49;;;;;;;;;0.50;0.50;;;;;4.36;75.83;100269.56;5028773;28;11540;-69
2023/01/19 07:29:16;;;;;;;;;0.00;0.00;;;;;4.35;76.13;100269.72;5031924;28;11576;-69
2023/01/19 07:31:42;;;;;;;;;1.00;1.00;;;;;4.37;75.89;100279.19;5031895;28;11596;-70
2023/01/19 07:34:09;;;;;;;;;0.00;0.00;;;;;4.37;75.77;100275.72;5025770;28;11451;-66
2023/01/19 07:36:37;;;;;;;;;0.25;0.00;;;;;4.39;76.48;100284.38;5012499;28;11448;-68
2023/01/19 07:39:04;;;;;;;;;0.00;0.00;;;;;4.40;76.38;100281.53;5011370;28;11142;-68
2023/01/19 07:41:31;;;;;;;;;0.00;0.00;;;;;4.38;76.11;100285.41;5012920;28;11037;-67
2023/01/19 07:43:57;;;;;;;;;0.00;0.00;;;;;4.37;76.49;100281.88;5029167;28;11453;-67
2023/01/19 07:46:24;;;;;;;;;0.00;0.00;;;;;4.39;76.03;100281.72;5031699;28;11232;-68
2023/01/19 07:48:50;;;;;;;;;1.00;0.00;;;;;4.38;76.03;100294.22;5017450;28;11289;-69
2023/01/19 07:51:17;;;;;;;;;1.00;0.00;;;;;4.36;76.46;100295.38;5032211;28;11561;-67
2023/01/19 07:53:45;;;;;;;;;1.00;1.00;;;;;4.33;75.91;100298.38;5031685;28;11576;-68
2023/01/19 07:56:12;;;;;;;;;0.75;0.00;;;;;4.27;75.50;100302.53;5031188;28;11206;-68
2023/01/19 07:58:38;;;;;;;;;1.00;1.00;;;;;4.24;75.99;100302.88;5031208;28;11193;-68
2023/01/19 08:01:09;;;;;;;;;0.00;0.00;;;;;4.25;75.71;100309.03;5030363;28;11472;-68
2023/01/19 08:03:36;;;;;;;;;0.00;0.00;;;;;4.21;75.50;100313.84;5028247;28;11449;-68
2023/01/19 08:06:04;;;;;;;;;0.00;0.00;;;;;4.21;75.48;100317.38;5030796;28;11439;-69
2023/01/19 08:08:31;;;;;;;;;1.00;0.00;;;;;4.22;75.25;100320.88;5031438;28;12205;-68
2023/01/19 08:10:58;;;;;;;;;1.75;0.00;;;;;4.22;75.21;100326.19;5031431;28;11568;-68
2023/01/19 08:13:25;;;;;;;;;0.00;0.00;;;;;4.24;75.26;100334.00;5030805;28;11459;-68
2023/01/19 08:15:53;;;;;;;;;0.25;0.00;;;;;4.17;74.43;100339.16;5030655;28;12301;-69
2023/01/19 08:18:19;;;;;;;;;0.00;0.00;;;;;4.17;74.82;100344.47;5026424;28;12227;-69
2023/01/19 08:20:46;;;;;;;;;1.00;1.00;;;;;4.15;74.60;100352.66;5025704;28;11541;-69
2023/01/19 08:23:12;;;;;;;;;0.00;0.00;;;;;4.11;73.73;100351.31;5030923;28;11333;-69
2023/01/19 08:25:43;;;;;;;;;1.50;0.00;;;;;4.14;74.33;100356.31;5029985;28;11472;-69
2023/01/19 08:28:13;;;;;;;;;0.00;0.00;;;;;4.20;73.96;100362.81;5027025;28;12252;-67
2023/01/19 08:30:42;;;;;;;;;0.00;0.00;;;;;4.20;74.10;100362.81;5019073;28;11507;-69
2023/01/19 08:33:09;;;;;;;;;0.00;0.00;;;;;4.22;74.00;100366.16;5029536;28;11488;-68
2023/01/19 08:35:40;;;;;;;;;0.00;0.00;;;;;4.30;73.77;100371.50;5020269;28;11417;-70
2023/01/19 08:38:08;;;;;;;;;0.00;0.00;;;;;4.33;73.02;100371.13;5030928;28;12261;-69
2023/01/19 08:40:37;;;;;;;;;0.00;0.00;;;;;4.36;73.06;100373.47;5031016;28;11505;-69
2023/01/19 08:43:07;;;;;;;;;0.00;0.00;;;;;4.40;72.53;100379.31;5030889;28;11581;-69
2023/01/19 08:45:35;;;;;;;;;0.00;0.00;;;;;4.40;72.75;100374.81;5030596;28;11440;-69
2023/01/19 08:48:02;;;;;;;;;0.00;0.00;;;;;4.42;71.33;100375.50;5030803;28;11466;-68
2023/01/19 08:50:30;;;;;;;;;0.00;0.00;;;;;4.39;70.30;100380.31;5027924;28;11491;-68
2023/01/19 08:52:59;;;;;;;;;1.00;0.00;;;;;4.42;70.22;100383.50;5022837;28;11945;-69
2023/01/19 08:55:28;;;;;;;;;2.00;0.00;;;;;4.42;69.89;100391.47;5014417;28;11446;-69
2023/01/19 08:57:56;;;;;;;;;0.00;0.00;;;;;4.40;69.83;100387.31;5011274;28;11513;-68
2023/01/19 09:00:26;;;;;;;;;0.00;0.00;;;;;4.44;69.81;100392.13;5011015;28;12281;-68
2023/01/19 09:02:53;;;;;;;;;0.00;0.00;;;;;4.45;69.90;100396.47;5010731;28;11462;-69
2023/01/19 09:05:20;;;;;;;;;0.00;0.00;;;;;4.45;70.00;100388.47;5024825;28;11459;-69
2023/01/19 09:07:50;;;;;;;;;0.75;0.75;;;;;4.52;70.48;100388.66;5028632;28;11451;-70
2023/01/19 09:10:17;;;;;;;;;0.25;0.25;;;;;4.64;70.72;100399.81;5030446;28;11201;-69
2023/01/19 09:12:45;;;;;;;;;0.00;0.00;;;;;4.77;71.60;100391.31;5030478;28;11457;-67
2023/01/19 09:15:14;;;;;;;;;0.00;0.00;;;;;4.86;70.41;100396.47;5030006;28;11192;-68
2023/01/19 09:17:41;;;;;;;;;0.25;0.25;;;;;4.87;70.02;100394.66;5027474;28;11115;-67
2023/01/19 09:20:08;;;;;;;;;1.00;1.00;;;;;4.92;70.37;100402.97;5030623;28;11416;-67
2023/01/19 09:22:35;;;;;;;;;0.00;0.00;;;;;4.95;69.53;100403.47;5030737;28;11384;-68
2023/01/19 09:25:01;;;;;;;;;0.00;0.00;;;;;5.03;69.29;100405.28;5028856;28;11106;-68
2023/01/19 09:27:28;;;;;;;;;1.00;0.00;;;;;5.10;69.90;100403.59;5030581;28;11111;-68
2023/01/19 09:29:54;;;;;;;;;0.00;0.00;;;;;5.17;68.64;100411.75;5029869;28;11483;-68
2023/01/19 09:32:21;;;;;;;;;1.00;0.00;;;;;5.21;68.30;100405.09;5028573;28;11139;-68
2023/01/19 09:34:48;;;;;;;;;1.25;1.00;;;;;5.21;68.25;100416.59;5022461;28;11035;-68
2023/01/19 09:37:15;;;;;;;;;1.00;0.00;;;;;5.26;68.05;100409.91;5030393;28;11269;-67
2023/01/19 09:39:41;;;;;;;;;0.25;0.25;;;;;5.29;68.10;100420.25;5030047;28;11137;-68
2023/01/19 09:42:35;;;;;;;;;1.50;1.00;;;;;5.32;67.47;100419.91;5030103;28;11099;-67
2023/01/19 09:45:07;;;;;;;;;0.00;0.00;;;;;5.33;67.23;100418.91;5016966;28;10962;-68
2023/01/19 09:47:36;;;;;;;;;0.00;0.00;;;;;5.38;67.43;100430.72;5014147;28;11066;-68
2023/01/19 09:50:11;;;;;;;;;0.00;0.00;;;;;5.43;66.88;100433.72;5023729;28;10974;-69
2023/01/19 09:52:42;;;;;;;;;1.00;1.00;;;;;5.46;66.21;100425.34;5030347;28;10988;-68
2023/01/19 09:55:29;;;;;;;;;1.00;0.00;;;;;5.47;66.47;100428.88;5029773;28;10974;-69
2023/01/19 09:57:56;;;;;;;;;1.00;1.00;;;;;5.40;65.88;100438.56;5030068;28;11048;-69
2023/01/19 10:00:23;;;;;;;;;1.00;1.00;;;;;5.46;64.16;100427.19;5025944;28;11082;-69
2023/01/19 10:02:57;;;;;;;;;0.00;0.00;;;;;5.42;64.85;100425.88;5013648;28;11158;-68
2023/01/19 10:05:45;;;;;;;;;0.00;0.00;;;;;5.44;64.44;100426.56;5045119;28;11078;-69
2023/01/19 10:08:25;;;;;;;;;0.00;0.00;;;;;5.45;63.76;100437.06;5028089;28;11131;-68
2023/01/19 10:10:54;;;;;;;;;0.00;0.00;;;;;5.49;62.93;100437.53;5014248;28;11046;-68
2023/01/19 10:13:35;;;;;;;;;0.00;0.00;;;;;5.50;62.84;100438.38;5013921;28;10962;-68
2023/01/19 10:16:39;;;;;;;;;0.00;0.00;;;;;5.53;61.16;100444.22;5033251;28;11106;-68
2023/01/19 10:19:27;;;;;;;;;0.00;0.00;;;;;5.59;61.38;100429.31;5033603;28;10950;-68
2023/01/19 10:21:57;;;;;;;;;2.00;0.00;;;;;5.66;60.99;100441.81;5032413;28;11787;-68
2023/01/19 10:24:39;;;;;;;;;0.00;0.00;;;;;5.69;60.70;100443.31;5029750;28;11129;-68
2023/01/19 10:27:17;;;;;;;;;0.00;0.00;;;;;5.72;60.23;100437.66;5033704;28;10880;-68
2023/01/19 10:29:45;;;;;;;;;0.00;0.00;;;;;5.75;59.48;100449.81;5033617;28;10873;-68
2023/01/19 10:32:33;;;;;;;;;0.00;0.00;;;;;5.79;59.84;100443.13;5031397;28;10888;-68
2023/01/19 10:34:59;;;;;;;;;0.00;0.00;;;;;5.83;60.17;100444.44;5030304;28;11715;-69
2023/01/19 10:37:32;;;;;;;;;0.00;0.00;;;;;5.77;60.06;100445.97;5033354;28;10873;-68
2023/01/19 10:40:07;;;;;;;;;0.00;0.00;;;;;5.79;59.96;100446.63;5033506;28;10872;-69
2023/01/19 10:42:36;;;;;;;;;2.50;0.50;;;;;5.79;60.45;100440.44;5032986;28;10665;-68
2023/01/19 10:45:03;;;;;;;;;2.00;0.00;;;;;5.82;60.71;100437.44;5032490;28;10831;-68
2023/01/19 10:47:35;;;;;;;;;0.00;0.00;;;;;5.76;61.09;100438.97;5029329;28;10746;-68
2023/01/19 10:50:31;;;;;;;;;1.00;1.00;;;;;5.58;60.65;100457.88;5026438;28;10877;-69
2023/01/19 10:53:04;;;;;;;;;1.00;0.00;;;;;5.55;60.30;100444.03;5025414;28;10989;-70
2023/01/19 10:55:39;;;;;;;;;0.75;0.75;;;;;5.58;60.26;100449.03;5018074;28;10863;-69
2023/01/19 10:58:26;;;;;;;;;0.00;0.00;;;;;5.65;60.98;100444.69;5032991;28;10882;-68
2023/01/19 11:00:53;;;;;;;;;1.50;0.00;;;;;5.69;61.14;100435.31;5034171;28;11043;-71
2023/01/19 11:03:24;;;;;;;;;0.00;0.00;;;;;5.57;59.13;100445.53;5028719;28;10875;-69
2023/01/19 11:05:50;;;;;;;;;0.00;0.00;;;;;5.61;58.50;100451.38;5024152;28;10818;-68
2023/01/19 11:08:22;;;;;;;;;0.75;0.00;;;;;5.68;58.70;100441.66;5031620;28;10890;-69
2023/01/19 11:11:03;;;;;;;;;0.00;0.00;;;;;5.72;59.40;100445.66;5022385;28;10976;-68
2023/01/19 11:13:31;;;;;;;;;0.50;0.50;;;;;5.81;60.14;100446.47;5015584;28;11718;-67
2023/01/19 11:16:04;;;;;;;;;1.25;1.00;;;;;5.80;60.29;100453.63;5025245;28;11060;-66
2023/01/19 11:18:33;;;;;;;;;0.00;0.00;;;;;5.79;61.07;100456.47;5020628;28;10903;-67
2023/01/19 11:21:22;;;;;;;;;1.00;1.00;;;;;5.75;61.91;100455.97;5015246;28;10815;-66
2023/01/19 11:23:55;;;;;;;;;1.00;1.00;;;;;5.68;61.15;100449.69;5014371;28;10888;-66
2023/01/19 11:26:32;;;;;;;;;1.00;0.00;;;;;5.57;61.56;100460.72;5013443;28;10937;-66
2023/01/19 11:29:02;;;;;;;;;1.75;1.00;;;;;5.37;61.46;100461.09;5013514;28;10973;-66
2023/01/19 11:31:28;;;;;;;;;0.00;0.00;;;;;5.34;62.18;100461.41;5013519;28;10999;-65
2023/01/19 11:34:04;;;;;;;;;0.00;0.00;;;;;5.40;62.50;100459.94;5012537;28;10998;-64
2023/01/19 11:36:34;;;;;;;;;0.00;0.00;;;;;5.48;62.82;100465.25;5016668;28;11081;-67
2023/01/19 11:39:22;;;;;;;;;1.25;1.25;;;;;5.44;62.40;100463.94;5032223;28;10960;-65
2023/01/19 11:41:55;;;;;;;;;0.50;0.00;;;;;5.38;62.78;100457.41;5032258;28;10953;-66
2023/01/19 11:44:27;;;;;;;;;0.00;0.00;;;;;5.28;63.28;100462.13;5032100;28;11787;-67
2023/01/19 11:46:58;;;;;;;;;0.00;0.00;;;;;5.22;63.33;100460.09;5032326;28;10871;-65
2023/01/19 11:49:36;;;;;;;;;1.75;0.25;;;;;5.13;63.46;100461.13;5011970;28;10872;-65
2023/01/19 11:52:11;;;;;;;;;0.00;0.00;;;;;5.15;63.11;100461.81;5012447;28;11336;-67
2023/01/19 11:54:48;;;;;;;;;0.00;0.00;;;;;5.20;63.17;100459.47;5024068;28;11195;-67
2023/01/19 11:57:19;;;;;;;;;0.75;0.00;;;;;5.32;63.36;100463.44;5031777;28;10928;-66
2023/01/19 11:59:45;;;;;;;;;1.50;1.00;;;;;5.45;63.44;100454.91;5031575;28;11060;-65